sensor_id;sensor_type;location;lat;lon;timestamp;pressure;altitude;pressure_sealevel;temperature;humidity
67397;BME280;57728;50.448;18.824;2023-09-18T00:00:58;98010.31;;;20.18;68.47
67397;BME280;57728;50.448;18.824;2023-09-18T00:03:00;98005.59;;;20.19;68.50
67397;BME280;57728;50.448;18.824;2023-09-18T00:05:04;97909.91;;;19.55;68.22
67397;BME280;57728;50.448;18.824;2023-09-18T00:07:05;98000.97;;;20.14;68.42
67397;BME280;57728;50.448;18.824;2023-09-18T00:09:07;98012.31;;;20.13;68.34
67397;BME280;57728;50.448;18.824;2023-09-18T00:11:12;97909.94;;;19.50;68.36
67397;BME280;57728;50.448;18.824;2023-09-18T00:13:13;97862.50;;;19.19;68.64
67397;BME280;57728;50.448;18.824;2023-09-18T00:15:15;98004.91;;;20.08;68.32
67397;BME280;57728;50.448;18.824;2023-09-18T00:17:17;97999.13;;;20.04;68.80
67397;BME280;57728;50.448;18.824;2023-09-18T00:19:18;97954.38;;;19.78;68.74
67397;BME280;57728;50.448;18.824;2023-09-18T00:21:20;97929.25;;;19.50;68.54
67397;BME280;57728;50.448;18.824;2023-09-18T00:23:21;98001.69;;;20.01;68.83
67397;BME280;57728;50.448;18.824;2023-09-18T00:25:23;97986.91;;;19.86;68.75
67397;BME280;57728;50.448;18.824;2023-09-18T00:27:25;97999.22;;;19.99;68.65
67397;BME280;57728;50.448;18.824;2023-09-18T00:29:26;97953.38;;;19.69;68.62
67397;BME280;57728;50.448;18.824;2023-09-18T00:31:27;97978.69;;;19.81;68.78
67397;BME280;57728;50.448;18.824;2023-09-18T00:33:29;97865.66;;;19.07;68.52
67397;BME280;57728;50.448;18.824;2023-09-18T00:35:30;97966.28;;;19.73;68.61
67397;BME280;57728;50.448;18.824;2023-09-18T00:37:31;98009.50;;;19.93;69.05
67397;BME280;57728;50.448;18.824;2023-09-18T00:39:33;97861.56;;;19.04;68.56
67397;BME280;57728;50.448;18.824;2023-09-18T00:41:36;98001.22;;;19.93;68.84
67397;BME280;57728;50.448;18.824;2023-09-18T00:43:37;97989.72;;;19.81;68.88
67397;BME280;57728;50.448;18.824;2023-09-18T00:45:44;97999.56;;;19.92;68.99
67397;BME280;57728;50.448;18.824;2023-09-18T00:47:47;97978.69;;;19.76;68.68
67397;BME280;57728;50.448;18.824;2023-09-18T00:49:50;98005.91;;;19.93;68.90
67397;BME280;57728;50.448;18.824;2023-09-18T00:51:54;97863.47;;;19.04;68.27
67397;BME280;57728;50.448;18.824;2023-09-18T00:53:55;97974.28;;;19.75;68.80
67397;BME280;57728;50.448;18.824;2023-09-18T00:56:00;98003.44;;;19.91;68.79
67397;BME280;57728;50.448;18.824;2023-09-18T00:58:05;97953.72;;;19.62;68.71
67397;BME280;57728;50.448;18.824;2023-09-18T01:00:07;97967.66;;;19.76;68.52
67397;BME280;57728;50.448;18.824;2023-09-18T01:02:09;97992.97;;;19.88;68.99
67397;BME280;57728;50.448;18.824;2023-09-18T01:04:12;97979.50;;;19.82;68.86
67397;BME280;57728;50.448;18.824;2023-09-18T01:06:14;97963.06;;;19.66;69.03
67397;BME280;57728;50.448;18.824;2023-09-18T01:08:15;97940.53;;;19.54;68.97
67397;BME280;57728;50.448;18.824;2023-09-18T01:10:18;97966.41;;;19.63;69.18
67397;BME280;57728;50.448;18.824;2023-09-18T01:12:38;97888.75;;;19.16;69.24
67397;BME280;57728;50.448;18.824;2023-09-18T01:15:02;97983.16;;;19.72;69.22
67397;BME280;57728;50.448;18.824;2023-09-18T01:17:13;97959.84;;;19.54;69.15
67397;BME280;57728;50.448;18.824;2023-09-18T01:19:16;97981.56;;;19.66;69.13
67397;BME280;57728;50.448;18.824;2023-09-18T01:21:21;97957.47;;;19.47;69.59
67397;BME280;57728;50.448;18.824;2023-09-18T01:23:23;97993.22;;;19.63;69.29
67397;BME280;57728;50.448;18.824;2023-09-18T01:25:24;97950.38;;;19.36;69.63
67397;BME280;57728;50.448;18.824;2023-09-18T01:27:25;97982.75;;;19.59;69.52
67397;BME280;57728;50.448;18.824;2023-09-18T01:29:27;97844.47;;;18.68;69.31
67397;BME280;57728;50.448;18.824;2023-09-18T01:31:30;97964.13;;;19.41;69.61
67397;BME280;57728;50.448;18.824;2023-09-18T01:33:33;97960.03;;;19.38;69.41
67397;BME280;57728;50.448;18.824;2023-09-18T01:35:37;97989.41;;;19.53;69.73
67397;BME280;57728;50.448;18.824;2023-09-18T01:37:41;97972.41;;;19.41;69.93
67397;BME280;57728;50.448;18.824;2023-09-18T01:39:47;97991.06;;;19.54;69.67
67397;BME280;57728;50.448;18.824;2023-09-18T01:41:51;97963.59;;;19.39;69.85
67397;BME280;57728;50.448;18.824;2023-09-18T01:43:53;97948.47;;;19.31;69.40
67397;BME280;57728;50.448;18.824;2023-09-18T01:45:56;97901.59;;;19.02;69.76
67397;BME280;57728;50.448;18.824;2023-09-18T01:47:58;97989.97;;;19.55;69.42
67397;BME280;57728;50.448;18.824;2023-09-18T01:50:03;97891.69;;;18.96;69.48
67397;BME280;57728;50.448;18.824;2023-09-18T01:52:08;97992.72;;;19.55;69.37
67397;BME280;57728;50.448;18.824;2023-09-18T01:54:10;97936.97;;;19.24;69.80
67397;BME280;57728;50.448;18.824;2023-09-18T01:56:12;97961.38;;;19.41;69.39
67397;BME280;57728;50.448;18.824;2023-09-18T01:58:13;97966.41;;;19.34;69.85
67397;BME280;57728;50.448;18.824;2023-09-18T02:00:15;97942.19;;;19.25;69.52
67397;BME280;57728;50.448;18.824;2023-09-18T02:02:17;97945.53;;;19.22;69.96
67397;BME280;57728;50.448;18.824;2023-09-18T02:04:20;97948.34;;;19.17;69.95
67397;BME280;57728;50.448;18.824;2023-09-18T02:06:23;97982.06;;;19.44;70.08
67397;BME280;57728;50.448;18.824;2023-09-18T02:08:24;97947.47;;;19.22;69.81
67397;BME280;57728;50.448;18.824;2023-09-18T02:10:25;97981.81;;;19.40;69.91
67397;BME280;57728;50.448;18.824;2023-09-18T02:12:27;97918.72;;;18.99;70.12
67397;BME280;57728;50.448;18.824;2023-09-18T02:14:29;97972.31;;;19.22;69.94
67397;BME280;57728;50.448;18.824;2023-09-18T02:16:36;97900.34;;;18.79;70.29
67397;BME280;57728;50.448;18.824;2023-09-18T02:18:41;97936.28;;;19.08;70.36
67397;BME280;57728;50.448;18.824;2023-09-18T02:20:45;97958.19;;;19.29;70.36
67397;BME280;57728;50.448;18.824;2023-09-18T02:22:49;97885.75;;;18.78;69.98
67397;BME280;57728;50.448;18.824;2023-09-18T02:24:50;97972.47;;;19.36;70.15
67397;BME280;57728;50.448;18.824;2023-09-18T02:26:52;97900.03;;;18.90;70.42
67397;BME280;57728;50.448;18.824;2023-09-18T02:28:55;97942.56;;;19.14;70.15
67397;BME280;57728;50.448;18.824;2023-09-18T02:31:05;97925.81;;;19.05;70.23
67397;BME280;57728;50.448;18.824;2023-09-18T02:33:08;97976.34;;;19.35;70.27
67397;BME280;57728;50.448;18.824;2023-09-18T02:35:09;97964.47;;;19.34;70.35
67397;BME280;57728;50.448;18.824;2023-09-18T02:37:11;97958.72;;;19.31;69.99
67397;BME280;57728;50.448;18.824;2023-09-18T02:39:13;97914.25;;;19.03;70.11
67397;BME280;57728;50.448;18.824;2023-09-18T02:41:14;97966.94;;;19.36;69.89
67397;BME280;57728;50.448;18.824;2023-09-18T02:43:15;97865.38;;;18.74;70.14
67397;BME280;57728;50.448;18.824;2023-09-18T02:45:17;97900.03;;;18.90;69.93
67397;BME280;57728;50.448;18.824;2023-09-18T02:47:18;97837.41;;;18.56;69.99
67397;BME280;57728;50.448;18.824;2023-09-18T02:49:19;97965.00;;;19.36;69.98
67397;BME280;57728;50.448;18.824;2023-09-18T02:51:22;97909.84;;;19.02;69.76
67397;BME280;57728;50.448;18.824;2023-09-18T02:53:24;97920.28;;;19.10;69.66
67397;BME280;57728;50.448;18.824;2023-09-18T02:55:25;97952.59;;;19.34;69.97
67397;BME280;57728;50.448;18.824;2023-09-18T02:57:27;97921.59;;;19.13;69.99
67397;BME280;57728;50.448;18.824;2023-09-18T02:59:28;97955.91;;;19.36;69.73
67397;BME280;57728;50.448;18.824;2023-09-18T03:01:30;97865.63;;;18.78;69.47
67397;BME280;57728;50.448;18.824;2023-09-18T03:03:33;97962.56;;;19.30;69.83
67397;BME280;57728;50.448;18.824;2023-09-18T03:05:34;97953.78;;;19.28;69.91
67397;BME280;57728;50.448;18.824;2023-09-18T03:07:36;97778.41;;;18.18;69.78
67397;BME280;57728;50.448;18.824;2023-09-18T03:09:38;97957.13;;;19.24;69.97
67397;BME280;57728;50.448;18.824;2023-09-18T03:11:40;97823.72;;;18.41;70.02
67397;BME280;57728;50.448;18.824;2023-09-18T03:13:46;97920.81;;;19.07;69.96
67397;BME280;57728;50.448;18.824;2023-09-18T03:15:49;97896.16;;;18.86;69.79
67397;BME280;57728;50.448;18.824;2023-09-18T03:17:51;97942.00;;;19.17;70.03
67397;BME280;57728;50.448;18.824;2023-09-18T03:19:52;97933.19;;;19.15;70.26
67397;BME280;57728;50.448;18.824;2023-09-18T03:21:54;97803.44;;;18.27;70.28
67397;BME280;57728;50.448;18.824;2023-09-18T03:23:56;97859.75;;;18.55;70.15
67397;BME280;57728;50.448;18.824;2023-09-18T03:25:58;97928.81;;;19.08;70.17
67397;BME280;57728;50.448;18.824;2023-09-18T03:28:02;97819.06;;;18.36;70.18
67397;BME280;57728;50.448;18.824;2023-09-18T03:30:06;97909.41;;;18.84;70.07
67397;BME280;57728;50.448;18.824;2023-09-18T03:32:08;97918.78;;;18.88;70.15
67397;BME280;57728;50.448;18.824;2023-09-18T03:34:13;97754.66;;;17.82;70.45
67397;BME280;57728;50.448;18.824;2023-09-18T03:36:15;97815.00;;;18.24;70.50
67397;BME280;57728;50.448;18.824;2023-09-18T03:38:16;97886.97;;;18.62;70.59
67397;BME280;57728;50.448;18.824;2023-09-18T03:40:20;97934.22;;;18.89;70.75
67397;BME280;57728;50.448;18.824;2023-09-18T03:42:23;97930.09;;;18.87;70.86
67397;BME280;57728;50.448;18.824;2023-09-18T03:44:24;97893.06;;;18.59;71.04
67397;BME280;57728;50.448;18.824;2023-09-18T03:46:27;97904.06;;;18.64;71.15
67397;BME280;57728;50.448;18.824;2023-09-18T03:48:28;97805.53;;;18.00;70.71
67397;BME280;57728;50.448;18.824;2023-09-18T03:50:29;97920.00;;;18.72;71.03
67397;BME280;57728;50.448;18.824;2023-09-18T03:52:34;97919.72;;;18.68;71.42
67397;BME280;57728;50.448;18.824;2023-09-18T03:54:36;97927.75;;;18.65;71.60
67397;BME280;57728;50.448;18.824;2023-09-18T03:56:37;97850.63;;;18.15;71.50
67397;BME280;57728;50.448;18.824;2023-09-18T03:58:39;97898.38;;;18.45;71.48
67397;BME280;57728;50.448;18.824;2023-09-18T04:00:41;97810.00;;;17.86;71.64
67397;BME280;57728;50.448;18.824;2023-09-18T04:02:43;97901.19;;;18.39;71.77
67397;BME280;57728;50.448;18.824;2023-09-18T04:04:45;97830.63;;;17.99;71.91
67397;BME280;57728;50.448;18.824;2023-09-18T04:06:46;97919.53;;;18.54;72.12
67397;BME280;57728;50.448;18.824;2023-09-18T04:08:47;97917.88;;;18.53;71.91
67397;BME280;57728;50.448;18.824;2023-09-18T04:10:49;97878.94;;;18.26;72.28
67397;BME280;57728;50.448;18.824;2023-09-18T04:12:50;97872.34;;;18.21;72.26
67397;BME280;57728;50.448;18.824;2023-09-18T04:14:52;97917.66;;;18.50;72.27
67397;BME280;57728;50.448;18.824;2023-09-18T04:16:54;97760.94;;;17.43;72.43
67397;BME280;57728;50.448;18.824;2023-09-18T04:18:55;97895.41;;;18.36;72.20
67397;BME280;57728;50.448;18.824;2023-09-18T04:20:56;97907.50;;;18.45;72.44
67397;BME280;57728;50.448;18.824;2023-09-18T04:23:27;97903.09;;;18.44;72.41
67397;BME280;57728;50.448;18.824;2023-09-18T04:25:29;97906.34;;;18.46;72.64
67397;BME280;57728;50.448;18.824;2023-09-18T04:27:32;97885.47;;;18.35;72.26
67397;BME280;57728;50.448;18.824;2023-09-18T04:29:34;97887.44;;;18.34;72.32
67397;BME280;57728;50.448;18.824;2023-09-18T04:31:36;97902.28;;;18.44;72.56
67397;BME280;57728;50.448;18.824;2023-09-18T04:33:39;97805.31;;;17.81;72.38
67397;BME280;57728;50.448;18.824;2023-09-18T04:35:41;97812.47;;;17.87;72.65
67397;BME280;57728;50.448;18.824;2023-09-18T04:37:42;97911.31;;;18.49;72.31
67397;BME280;57728;50.448;18.824;2023-09-18T04:39:44;97881.38;;;18.32;72.67
67397;BME280;57728;50.448;18.824;2023-09-18T04:41:46;97848.63;;;18.26;72.46
67397;BME280;57728;50.448;18.824;2023-09-18T04:43:47;97892.28;;;18.48;72.24
67397;BME280;57728;50.448;18.824;2023-09-18T04:45:49;97766.84;;;17.71;72.48
67397;BME280;57728;50.448;18.824;2023-09-18T04:47:52;97786.59;;;17.88;72.41
67397;BME280;57728;50.448;18.824;2023-09-18T04:49:54;97738.53;;;17.65;72.33
67397;BME280;57728;50.448;18.824;2023-09-18T04:51:55;97861.19;;;18.42;72.37
67397;BME280;57728;50.448;18.824;2023-09-18T04:53:58;97873.56;;;18.45;72.34
67397;BME280;57728;50.448;18.824;2023-09-18T04:56:00;97894.94;;;18.63;71.97
67397;BME280;57728;50.448;18.824;2023-09-18T04:58:01;97751.97;;;17.77;72.12
67397;BME280;57728;50.448;18.824;2023-09-18T05:00:06;97890.78;;;18.66;72.04
67397;BME280;57728;50.448;18.824;2023-09-18T05:02:13;97818.31;;;18.26;71.90
67397;BME280;57728;50.448;18.824;2023-09-18T05:04:14;97888.88;;;18.66;71.73
67397;BME280;57728;50.448;18.824;2023-09-18T05:06:16;97823.28;;;18.24;72.14
67397;BME280;57728;50.448;18.824;2023-09-18T05:08:18;97793.13;;;18.03;71.68
67397;BME280;57728;50.448;18.824;2023-09-18T05:10:20;97878.75;;;18.56;72.00
67397;BME280;57728;50.448;18.824;2023-09-18T05:12:22;97865.28;;;18.50;71.78
67397;BME280;57728;50.448;18.824;2023-09-18T05:14:23;97880.25;;;18.73;71.78
67397;BME280;57728;50.448;18.824;2023-09-18T05:16:25;97900.63;;;18.77;71.88
67397;BME280;57728;50.448;18.824;2023-09-18T05:18:26;97765.59;;;18.03;71.65
67397;BME280;57728;50.448;18.824;2023-09-18T05:20:28;97869.00;;;18.69;71.93
67397;BME280;57728;50.448;18.824;2023-09-18T05:22:30;97769.63;;;18.16;71.61
67397;BME280;57728;50.448;18.824;2023-09-18T05:24:32;97733.16;;;17.95;71.54
67397;BME280;57728;50.448;18.824;2023-09-18T05:26:33;97854.00;;;18.81;71.31
67397;BME280;57728;50.448;18.824;2023-09-18T05:28:35;97719.06;;;18.01;71.52
67397;BME280;57728;50.448;18.824;2023-09-18T05:30:37;97802.16;;;18.48;71.09
67397;BME280;57728;50.448;18.824;2023-09-18T05:32:42;97885.50;;;19.09;71.40
67397;BME280;57728;50.448;18.824;2023-09-18T05:34:45;97781.72;;;18.54;71.06
67397;BME280;57728;50.448;18.824;2023-09-18T05:36:46;97756.97;;;18.49;71.19
67397;BME280;57728;50.448;18.824;2023-09-18T05:38:48;97873.19;;;19.25;70.71
67397;BME280;57728;50.448;18.824;2023-09-18T05:40:49;97875.09;;;19.30;70.62
67397;BME280;57728;50.448;18.824;2023-09-18T05:42:51;97839.66;;;19.13;70.41
67397;BME280;57728;50.448;18.824;2023-09-18T05:44:52;97786.69;;;18.82;70.40
67397;BME280;57728;50.448;18.824;2023-09-18T05:46:55;97866.69;;;19.40;70.30
67397;BME280;57728;50.448;18.824;2023-09-18T05:48:57;97784.19;;;18.85;70.37
67397;BME280;57728;50.448;18.824;2023-09-18T05:50:59;97756.66;;;18.80;69.98
67397;BME280;57728;50.448;18.824;2023-09-18T05:53:00;97763.81;;;18.81;70.10
67397;BME280;57728;50.448;18.824;2023-09-18T05:55:05;97740.94;;;18.81;69.65
67397;BME280;57728;50.448;18.824;2023-09-18T05:57:07;97857.13;;;19.57;69.90
67397;BME280;57728;50.448;18.824;2023-09-18T05:59:08;97822.78;;;19.44;69.82
67397;BME280;57728;50.448;18.824;2023-09-18T06:01:10;97846.78;;;19.68;69.69
67397;BME280;57728;50.448;18.824;2023-09-18T06:03:11;97819.28;;;19.57;69.55
67397;BME280;57728;50.448;18.824;2023-09-18T06:05:13;97824.47;;;19.64;69.28
67397;BME280;57728;50.448;18.824;2023-09-18T06:07:17;97812.38;;;19.60;69.09
67397;BME280;57728;50.448;18.824;2023-09-18T06:09:18;97847.06;;;19.90;69.06
67397;BME280;57728;50.448;18.824;2023-09-18T06:11:19;97824.22;;;19.85;68.61
67397;BME280;57728;50.448;18.824;2023-09-18T06:13:21;97848.00;;;20.05;68.80
67397;BME280;57728;50.448;18.824;2023-09-18T06:15:24;97849.56;;;20.11;68.72
67397;BME280;57728;50.448;18.824;2023-09-18T06:17:26;97837.53;;;20.21;68.51
67397;BME280;57728;50.448;18.824;2023-09-18T06:19:27;97812.28;;;20.08;68.41
67397;BME280;57728;50.448;18.824;2023-09-18T06:21:29;97824.47;;;20.26;68.09
67397;BME280;57728;50.448;18.824;2023-09-18T06:23:30;97812.06;;;20.24;67.91
67397;BME280;57728;50.448;18.824;2023-09-18T06:25:32;97841.78;;;20.51;67.83
67397;BME280;57728;50.448;18.824;2023-09-18T06:27:34;97846.94;;;20.58;67.55
67397;BME280;57728;50.448;18.824;2023-09-18T06:29:37;97793.38;;;20.35;67.22
67397;BME280;57728;50.448;18.824;2023-09-18T06:31:40;97824.31;;;20.56;67.12
67397;BME280;57728;50.448;18.824;2023-09-18T06:33:41;97837.00;;;20.76;66.86
67397;BME280;57728;50.448;18.824;2023-09-18T06:35:43;97847.69;;;20.83;66.40
67397;BME280;57728;50.448;18.824;2023-09-18T06:37:44;97799.63;;;20.59;65.82
67397;BME280;57728;50.448;18.824;2023-09-18T06:39:46;97817.81;;;20.79;65.80
67397;BME280;57728;50.448;18.824;2023-09-18T06:41:47;97828.31;;;20.96;65.63
67397;BME280;57728;50.448;18.824;2023-09-18T06:43:49;97798.63;;;20.88;65.84
67397;BME280;57728;50.448;18.824;2023-09-18T06:45:51;97820.66;;;21.07;65.26
67397;BME280;57728;50.448;18.824;2023-09-18T06:47:52;97795.66;;;20.99;65.12
67397;BME280;57728;50.448;18.824;2023-09-18T06:49:54;97709.03;;;20.51;64.24
67397;BME280;57728;50.448;18.824;2023-09-18T06:51:55;97815.56;;;21.28;64.59
67397;BME280;57728;50.448;18.824;2023-09-18T06:53:56;97739.47;;;20.84;64.16
67397;BME280;57728;50.448;18.824;2023-09-18T06:55:58;97728.72;;;20.83;64.19
67397;BME280;57728;50.448;18.824;2023-09-18T06:58:00;97853.16;;;21.62;63.72
67397;BME280;57728;50.448;18.824;2023-09-18T07:00:01;97841.66;;;21.69;64.00
67397;BME280;57728;50.448;18.824;2023-09-18T07:02:04;97811.69;;;21.57;63.22
67397;BME280;57728;50.448;18.824;2023-09-18T07:04:05;97837.88;;;21.79;63.10
67397;BME280;57728;50.448;18.824;2023-09-18T07:06:06;97835.28;;;21.83;62.75
67397;BME280;57728;50.448;18.824;2023-09-18T07:08:08;97833.34;;;21.83;62.88
67397;BME280;57728;50.448;18.824;2023-09-18T07:10:12;97829.81;;;21.91;62.39
67397;BME280;57728;50.448;18.824;2023-09-18T07:12:13;97836.78;;;22.03;62.20
67397;BME280;57728;50.448;18.824;2023-09-18T07:14:15;97821.31;;;22.02;62.27
67397;BME280;57728;50.448;18.824;2023-09-18T07:16:16;97836.75;;;22.16;62.49
67397;BME280;57728;50.448;18.824;2023-09-18T07:18:18;97840.13;;;22.27;62.49
67397;BME280;57728;50.448;18.824;2023-09-18T07:20:20;97835.84;;;22.21;61.84
67397;BME280;57728;50.448;18.824;2023-09-18T07:22:23;97825.88;;;22.34;61.83
67397;BME280;57728;50.448;18.824;2023-09-18T07:24:24;97809.94;;;22.26;61.52
67397;BME280;57728;50.448;18.824;2023-09-18T07:26:26;97844.47;;;22.56;61.43
67397;BME280;57728;50.448;18.824;2023-09-18T07:28:27;97834.91;;;22.62;61.22
67397;BME280;57728;50.448;18.824;2023-09-18T07:30:29;97835.75;;;22.72;61.45
67397;BME280;57728;50.448;18.824;2023-09-18T07:32:31;97811.75;;;22.67;61.37
67397;BME280;57728;50.448;18.824;2023-09-18T07:34:33;97807.91;;;22.77;60.89
67397;BME280;57728;50.448;18.824;2023-09-18T07:36:34;97818.59;;;22.92;60.42
67397;BME280;57728;50.448;18.824;2023-09-18T07:38:36;97809.00;;;22.98;60.02
67397;BME280;57728;50.448;18.824;2023-09-18T07:40:38;97830.19;;;23.17;60.05
67397;BME280;57728;50.448;18.824;2023-09-18T07:42:39;97820.59;;;23.23;59.81
67397;BME280;57728;50.448;18.824;2023-09-18T07:44:41;97820.00;;;23.35;59.33
67397;BME280;57728;50.448;18.824;2023-09-18T07:46:42;97813.31;;;23.36;59.09
67397;BME280;57728;50.448;18.824;2023-09-18T07:48:44;97809.75;;;23.44;58.72
67397;BME280;57728;50.448;18.824;2023-09-18T07:50:45;97802.44;;;23.57;58.52
67397;BME280;57728;50.448;18.824;2023-09-18T07:52:47;97818.66;;;23.73;58.03
67397;BME280;57728;50.448;18.824;2023-09-18T07:54:48;97800.81;;;23.74;58.23
67397;BME280;57728;50.448;18.824;2023-09-18T07:56:50;97819.72;;;23.94;57.62
67397;BME280;57728;50.448;18.824;2023-09-18T07:58:51;97813.19;;;24.08;57.54
67397;BME280;57728;50.448;18.824;2023-09-18T08:00:52;97765.91;;;23.90;57.13
67397;BME280;57728;50.448;18.824;2023-09-18T08:02:55;97819.59;;;24.34;56.21
67397;BME280;57728;50.448;18.824;2023-09-18T08:05:01;97821.56;;;24.43;56.19
67397;BME280;57728;50.448;18.824;2023-09-18T08:07:03;97767.06;;;24.24;56.59
67397;BME280;57728;50.448;18.824;2023-09-18T08:09:08;97809.81;;;24.63;56.05
67397;BME280;57728;50.448;18.824;2023-09-18T08:11:15;97814.03;;;24.69;54.37
67397;BME280;57728;50.448;18.824;2023-09-18T08:13:17;97813.38;;;24.72;54.61
67397;BME280;57728;50.448;18.824;2023-09-18T08:15:20;97804.34;;;24.76;53.99
67397;BME280;57728;50.448;18.824;2023-09-18T08:17:21;97786.06;;;24.66;54.35
67397;BME280;57728;50.448;18.824;2023-09-18T08:19:22;97770.00;;;24.63;54.37
67397;BME280;57728;50.448;18.824;2023-09-18T08:21:25;97812.53;;;24.98;54.59
67397;BME280;57728;50.448;18.824;2023-09-18T08:23:26;97784.84;;;24.93;54.19
67397;BME280;57728;50.448;18.824;2023-09-18T08:25:28;97777.78;;;25.04;53.70
67397;BME280;57728;50.448;18.824;2023-09-18T08:27:30;97794.22;;;25.36;53.21
67397;BME280;57728;50.448;18.824;2023-09-18T08:29:31;97738.63;;;25.10;53.12
67397;BME280;57728;50.448;18.824;2023-09-18T08:31:32;97786.50;;;25.71;52.89
67397;BME280;57728;50.448;18.824;2023-09-18T08:33:34;97797.13;;;26.08;51.56
67397;BME280;57728;50.448;18.824;2023-09-18T08:35:37;97795.75;;;26.35;50.95
67397;BME280;57728;50.448;18.824;2023-09-18T08:37:41;97796.78;;;26.73;50.39
67397;BME280;57728;50.448;18.824;2023-09-18T08:39:43;97800.50;;;27.10;49.78
67397;BME280;57728;50.448;18.824;2023-09-18T08:41:51;97794.28;;;27.51;48.69
67397;BME280;57728;50.448;18.824;2023-09-18T08:44:00;97780.19;;;27.84;47.38
67397;BME280;57728;50.448;18.824;2023-09-18T08:46:05;97752.28;;;28.12;46.00
67397;BME280;57728;50.448;18.824;2023-09-18T08:48:06;97784.78;;;28.70;45.49
67397;BME280;57728;50.448;18.824;2023-09-18T08:50:09;97781.84;;;28.95;44.92
67397;BME280;57728;50.448;18.824;2023-09-18T08:52:15;97754.00;;;29.02;43.65
67397;BME280;57728;50.448;18.824;2023-09-18T08:54:17;97788.66;;;29.58;43.05
67397;BME280;57728;50.448;18.824;2023-09-18T08:56:20;97773.97;;;29.80;43.24
67397;BME280;57728;50.448;18.824;2023-09-18T08:58:24;97760.00;;;30.00;41.87
67397;BME280;57728;50.448;18.824;2023-09-18T09:00:27;97792.44;;;30.33;41.17
67397;BME280;57728;50.448;18.824;2023-09-18T09:02:28;97782.31;;;30.48;40.64
67397;BME280;57728;50.448;18.824;2023-09-18T09:04:30;97770.91;;;30.41;39.70
67397;BME280;57728;50.448;18.824;2023-09-18T09:06:31;97782.03;;;30.53;39.99
67397;BME280;57728;50.448;18.824;2023-09-18T09:08:33;97785.28;;;30.75;40.06
67397;BME280;57728;50.448;18.824;2023-09-18T09:10:36;97751.06;;;30.69;39.32
67397;BME280;57728;50.448;18.824;2023-09-18T09:13:00;97775.25;;;30.97;39.04
67397;BME280;57728;50.448;18.824;2023-09-18T09:15:03;97780.50;;;31.18;39.16
67397;BME280;57728;50.448;18.824;2023-09-18T09:17:05;97773.97;;;31.37;38.88
67397;BME280;57728;50.448;18.824;2023-09-18T09:19:07;97713.91;;;31.22;37.82
67397;BME280;57728;50.448;18.824;2023-09-18T09:21:08;97771.53;;;31.82;37.79
67397;BME280;57728;50.448;18.824;2023-09-18T09:23:10;97771.41;;;32.01;38.14
67397;BME280;57728;50.448;18.824;2023-09-18T09:27:22;97766.94;;;32.27;36.63
67397;BME280;57728;50.448;18.824;2023-09-18T09:29:24;97736.53;;;32.10;35.77
67397;BME280;57728;50.448;18.824;2023-09-18T09:31:27;97713.56;;;31.77;36.41
67397;BME280;57728;50.448;18.824;2023-09-18T09:33:30;97745.25;;;32.01;36.98
67397;BME280;57728;50.448;18.824;2023-09-18T09:35:35;97726.00;;;32.06;36.21
67397;BME280;57728;50.448;18.824;2023-09-18T09:37:37;97757.06;;;32.40;36.16
67397;BME280;57728;50.448;18.824;2023-09-18T09:39:51;97758.69;;;32.42;35.61
67397;BME280;57728;50.448;18.824;2023-09-18T09:41:53;97649.06;;;31.65;35.98
67397;BME280;57728;50.448;18.824;2023-09-18T09:43:55;97754.63;;;32.39;35.69
67397;BME280;57728;50.448;18.824;2023-09-18T09:45:58;97668.28;;;31.89;35.70
67397;BME280;57728;50.448;18.824;2023-09-18T09:48:03;97741.28;;;32.66;36.00
67397;BME280;57728;50.448;18.824;2023-09-18T09:50:11;97743.88;;;32.82;35.11
67397;BME280;57728;50.448;18.824;2023-09-18T09:52:19;97669.38;;;32.42;34.81
67397;BME280;57728;50.448;18.824;2023-09-18T09:54:32;97728.94;;;32.78;35.08
67397;BME280;57728;50.448;18.824;2023-09-18T09:56:48;97736.34;;;32.94;35.51
67397;BME280;57728;50.448;18.824;2023-09-18T09:59:04;97741.13;;;33.27;35.07
67397;BME280;57728;50.448;18.824;2023-09-18T10:01:12;97755.41;;;33.52;34.12
67397;BME280;57728;50.448;18.824;2023-09-18T10:03:20;97744.22;;;33.59;34.81
67397;BME280;57728;50.448;18.824;2023-09-18T10:05:26;97750.69;;;33.67;34.34
67397;BME280;57728;50.448;18.824;2023-09-18T10:07:30;97640.22;;;33.06;33.85
67397;BME280;57728;50.448;18.824;2023-09-18T10:09:35;97731.69;;;33.60;34.02
67397;BME280;57728;50.448;18.824;2023-09-18T10:11:45;97728.88;;;33.60;33.62
67397;BME280;57728;50.448;18.824;2023-09-18T10:14:09;97744.56;;;33.54;34.48
67397;BME280;57728;50.448;18.824;2023-09-18T10:16:17;97709.91;;;33.57;34.76
67397;BME280;57728;50.448;18.824;2023-09-18T10:18:46;97728.03;;;34.16;33.91
67397;BME280;57728;50.448;18.824;2023-09-18T10:21:10;97734.03;;;34.07;33.67
67397;BME280;57728;50.448;18.824;2023-09-18T10:23:41;97654.22;;;33.47;33.60
67397;BME280;57728;50.448;18.824;2023-09-18T10:26:07;97668.38;;;33.58;33.11
67397;BME280;57728;50.448;18.824;2023-09-18T10:28:15;97726.75;;;34.02;33.56
67397;BME280;57728;50.448;18.824;2023-09-18T10:30:16;97732.53;;;34.27;33.93
67397;BME280;57728;50.448;18.824;2023-09-18T10:32:21;97713.25;;;34.44;33.36
67397;BME280;57728;50.448;18.824;2023-09-18T10:34:28;97692.69;;;34.54;33.50
67397;BME280;57728;50.448;18.824;2023-09-18T10:36:31;97694.72;;;34.68;32.43
67397;BME280;57728;50.448;18.824;2023-09-18T10:38:37;97659.97;;;34.50;32.30
67397;BME280;57728;50.448;18.824;2023-09-18T10:40:41;97707.25;;;34.67;31.12
67397;BME280;57728;50.448;18.824;2023-09-18T10:42:46;97718.97;;;34.66;31.27
67397;BME280;57728;50.448;18.824;2023-09-18T10:44:53;97720.97;;;34.54;30.95
67397;BME280;57728;50.448;18.824;2023-09-18T10:46:56;97681.25;;;34.22;31.19